Time;durP1;ratioP1;P1;durP2;ratioP2;P2;SDS_P1;SDS_P2;PMS_P1;PMS_P2;Temp;Humidity;BMP_temperature;BMP_pressure;BME280_temperature;BME280_humidity;BME280_pressure;Samples;Min_cycle;Max_cycle;Signal;HPM_P1;HPM_P2
2022/12/31 00:01:34;;;;;;;;;;;;;;;2.98;85.62;96305.84;5076133;28;966;-50
2022/12/31 00:04:00;;;;;;;;;;;;;;;2.87;87.31;96311.75;5075792;28;1083;-49
2022/12/31 00:06:26;;;;;;;;;;;;;;;2.83;87.15;96305.78;5075812;28;1075;-49
2022/12/31 00:08:53;;;;;;;;;;;;;;;2.87;87.02;96309.94;5075821;28;999;-49
2022/12/31 00:11:20;;;;;;;;;;;;;;;2.64;87.14;96299.81;5075808;28;1083;-49
2022/12/31 00:13:46;;;;;;;;;;;;;;;2.68;87.38;96301.34;5075575;28;938;-49
2022/12/31 00:16:16;;;;;;;;;;;;;;;2.74;87.10;96311.56;5075817;28;1906;-49
2022/12/31 00:18:43;;;;;;;;;;;;;;;2.76;86.79;96312.31;5075526;28;1950;-49
2022/12/31 00:21:09;;;;;;;;;;;;;;;2.79;87.39;96309.53;5075571;28;1016;-49
2022/12/31 00:23:36;;;;;;;;;;;;;;;2.69;88.02;96308.31;5075486;28;1108;-49
2022/12/31 00:26:06;;;;;;;;;;;;;;;2.62;88.53;96312.22;5075298;28;1070;-50
2022/12/31 00:28:33;;;;;;;;;;;;;;;2.74;87.83;96308.91;5075861;28;1060;-49
2022/12/31 00:31:03;;;;;;;;;;;;;;;2.82;88.38;96311.13;5073993;28;1022;-49
2022/12/31 00:33:29;;;;;;;;;;;;;;;3.04;87.41;96318.72;5075465;28;1013;-50
2022/12/31 00:36:02;;;;;;;;;;;;;;;2.62;86.13;96328.06;5075151;28;1979;-49
2022/12/31 00:38:28;;;;;;;;;;;;;;;2.55;86.66;96327.56;5075273;28;966;-49
2022/12/31 00:40:54;;;;;;;;;;;;;;;2.61;86.93;96329.88;5075143;28;1014;-50
2022/12/31 00:43:20;;;;;;;;;;;;;;;2.61;86.81;96327.22;5075186;28;1128;-49
2022/12/31 00:45:46;;;;;;;;;;;;;;;2.49;86.55;96339.31;5075008;28;1064;-49
2022/12/31 00:48:12;;;;;;;;;;;;;;;2.47;87.44;96335.06;5069415;28;1213;-50
2022/12/31 00:50:38;;;;;;;;;;;;;;;2.49;87.03;96347.22;5055086;28;966;-49
2022/12/31 00:53:04;;;;;;;;;;;;;;;2.39;88.00;96345.16;5054871;28;1013;-50
2022/12/31 00:55:30;;;;;;;;;;;;;;;2.26;88.33;96350.25;5054751;28;1906;-49
2022/12/31 00:57:56;;;;;;;;;;;;;;;2.35;88.08;96355.03;5054953;28;1054;-49
2022/12/31 01:00:23;;;;;;;;;;;;;;;2.29;87.69;96352.72;5054829;28;1079;-49
2022/12/31 01:02:49;;;;;;;;;;;;;;;2.43;87.69;96355.50;5054832;28;966;-49
2022/12/31 01:05:15;;;;;;;;;;;;;;;2.46;86.79;96354.47;5053526;28;1028;-49
2022/12/31 01:07:41;;;;;;;;;;;;;;;2.27;86.14;96358.06;5054661;28;1060;-49
2022/12/31 01:10:07;;;;;;;;;;;;;;;2.05;87.76;96353.09;5054596;28;984;-49
2022/12/31 01:12:33;;;;;;;;;;;;;;;2.16;88.09;96365.69;5054541;28;1001;-49
2022/12/31 01:15:00;;;;;;;;;;;;;;;2.26;87.37;96355.53;5053259;28;1904;-49
2022/12/31 01:17:26;;;;;;;;;;;;;;;2.11;87.14;96354.53;5054617;28;1137;-49
2022/12/31 01:19:52;;;;;;;;;;;;;;;2.09;88.56;96359.06;5054433;28;962;-49
2022/12/31 01:22:18;;;;;;;;;;;;;;;2.22;88.23;96361.88;5054393;28;1877;-49
2022/12/31 01:24:44;;;;;;;;;;;;;;;2.39;88.72;96356.59;5054197;28;974;-50
2022/12/31 01:27:10;;;;;;;;;;;;;;;2.44;88.10;96359.81;5054485;28;1041;-50
2022/12/31 01:29:36;;;;;;;;;;;;;;;2.36;86.73;96356.75;5054378;28;1049;-49
2022/12/31 01:32:02;;;;;;;;;;;;;;;2.25;86.41;96359.94;5054184;28;917;-49
2022/12/31 01:34:28;;;;;;;;;;;;;;;2.01;87.36;96356.81;5036505;28;2011;-49
2022/12/31 01:36:54;;;;;;;;;;;;;;;1.85;87.70;96358.53;5054015;28;919;-49
2022/12/31 01:39:20;;;;;;;;;;;;;;;1.79;88.53;96361.47;5054018;28;1057;-49
2022/12/31 01:41:46;;;;;;;;;;;;;;;1.80;87.19;96360.53;5053584;28;1012;-49
2022/12/31 01:44:12;;;;;;;;;;;;;;;1.78;89.81;96368.50;5053882;28;1670;-49
2022/12/31 01:46:38;;;;;;;;;;;;;;;1.98;90.97;96367.50;5054103;28;974;-50
2022/12/31 01:49:22;;;;;;;;;;;;;;;2.09;87.67;96366.97;5066679;28;1165;-50
2022/12/31 01:52:09;;;;;;;;;;;;;;;2.13;87.17;96373.78;5073706;28;962;-50
2022/12/31 01:54:38;;;;;;;;;;;;;;;2.18;87.11;96376.16;5073750;28;2009;-49
2022/12/31 01:57:05;;;;;;;;;;;;;;;2.20;87.52;96379.59;5073812;28;1033;-49
2022/12/31 01:59:32;;;;;;;;;;;;;;;2.03;85.36;96375.19;5073690;28;1083;-49
2022/12/31 02:01:59;;;;;;;;;;;;;;;1.98;86.67;96374.59;5073661;28;987;-49
2022/12/31 02:04:26;;;;;;;;;;;;;;;2.04;87.45;96364.56;5073592;28;1011;-49
2022/12/31 02:06:56;;;;;;;;;;;;;;;2.08;87.74;96360.81;5073886;28;1017;-50
2022/12/31 02:09:22;;;;;;;;;;;;;;;2.06;86.57;96361.84;5073778;28;1190;-49
2022/12/31 02:11:48;;;;;;;;;;;;;;;1.77;86.22;96358.91;5073626;28;1202;-49
2022/12/31 02:14:16;;;;;;;;;;;;;;;1.49;87.84;96360.28;5073593;28;1057;-49
2022/12/31 02:16:57;;;;;;;;;;;;;;;1.56;88.53;96361.69;5073418;28;1099;-49
2022/12/31 02:19:53;;;;;;;;;;;;;;;1.66;88.60;96364.72;5073661;28;1028;-49
2022/12/31 02:22:38;;;;;;;;;;;;;;;1.92;88.48;96370.47;5060409;28;1370;-49
2022/12/31 02:25:16;;;;;;;;;;;;;;;2.12;87.76;96375.53;5073318;28;998;-49
2022/12/31 02:27:58;;;;;;;;;;;;;;;2.08;87.34;96375.81;5073539;28;1011;-49
2022/12/31 02:30:27;;;;;;;;;;;;;;;1.81;86.74;96383.34;5073487;28;1052;-49
2022/12/31 02:33:00;;;;;;;;;;;;;;;1.80;86.77;96389.53;5073408;28;1011;-49
2022/12/31 02:35:32;;;;;;;;;;;;;;;1.75;87.63;96384.50;5073327;28;1914;-49
2022/12/31 02:38:01;;;;;;;;;;;;;;;1.90;87.71;96385.53;5073203;28;1017;-49
2022/12/31 02:40:27;;;;;;;;;;;;;;;1.75;86.70;96390.63;5073279;28;1063;-49
2022/12/31 02:42:53;;;;;;;;;;;;;;;1.52;87.46;96390.94;5073149;28;1223;-49
2022/12/31 02:45:23;;;;;;;;;;;;;;;1.36;88.59;96388.19;5073258;28;1020;-49
2022/12/31 02:48:00;;;;;;;;;;;;;;;1.25;89.76;96386.09;5070632;28;1165;-49
2022/12/31 02:50:31;;;;;;;;;;;;;;;1.52;89.18;96383.88;5053058;28;969;-50
2022/12/31 02:53:17;;;;;;;;;;;;;;;1.75;88.68;96395.91;5053534;28;1033;-50
2022/12/31 02:55:46;;;;;;;;;;;;;;;1.92;88.40;96395.06;5056881;28;1906;-50
2022/12/31 03:02:12;;;;;;;;;;;;;;;2.03;87.49;96391.88;5057111;28;1020;-49
2022/12/31 03:04:30;;;;;;;;;;;;;;;1.57;88.62;96394.19;5056978;28;1028;-49
2022/12/31 03:06:40;;;;;;;;;;;;;;;1.56;89.30;96395.97;5056909;28;1555;-49
2022/12/31 03:09:12;;;;;;;;;;;;;;;1.66;88.48;96399.00;5056821;28;1012;-49
2022/12/31 03:14:23;;;;;;;;;;;;;;;1.76;88.91;96399.38;5056783;28;1995;-49
2022/12/31 03:16:49;;;;;;;;;;;;;;;1.91;88.25;96398.63;5055667;28;968;-49
2022/12/31 03:27:29;;;;;;;;;;;;;;;1.65;87.44;96392.03;5056569;28;1032;-49
2022/12/31 03:29:55;;;;;;;;;;;;;;;1.78;87.40;96394.03;5056451;28;1041;-49
2022/12/31 03:32:21;;;;;;;;;;;;;;;1.85;87.71;96395.44;5056396;28;1048;-49
2022/12/31 03:34:47;;;;;;;;;;;;;;;1.84;87.55;96393.72;5038790;28;1902;-49
2022/12/31 03:37:13;;;;;;;;;;;;;;;1.88;87.88;96405.84;5056380;28;1024;-49
2022/12/31 03:39:39;;;;;;;;;;;;;;;1.86;88.09;96405.03;5056458;28;1039;-49
2022/12/31 03:42:05;;;;;;;;;;;;;;;1.76;88.08;96407.28;5056184;28;1183;-49
2022/12/31 03:44:31;;;;;;;;;;;;;;;1.83;88.00;96408.69;5056119;28;1085;-49
2022/12/31 03:46:57;;;;;;;;;;;;;;;1.85;87.58;96398.94;5056090;28;942;-49
2022/12/31 03:49:23;;;;;;;;;;;;;;;1.81;88.03;96396.53;5071547;28;1221;-49
2022/12/31 03:51:49;;;;;;;;;;;;;;;1.67;88.08;96392.81;5076007;28;1024;-49
2022/12/31 03:54:15;;;;;;;;;;;;;;;1.56;88.69;96405.66;5076244;28;1001;-49
2022/12/31 03:56:41;;;;;;;;;;;;;;;1.68;88.99;96410.31;5075981;28;1932;-49
2022/12/31 03:59:08;;;;;;;;;;;;;;;1.80;88.49;96406.22;5076081;28;957;-49
2022/12/31 04:01:34;;;;;;;;;;;;;;;2.02;88.89;96407.78;5075858;28;942;-49
2022/12/31 04:04:00;;;;;;;;;;;;;;;2.14;88.61;96418.56;5075803;28;1059;-49
2022/12/31 04:06:26;;;;;;;;;;;;;;;2.06;89.52;96409.31;5076041;28;1017;-50
2022/12/31 04:08:52;;;;;;;;;;;;;;;2.09;89.68;96414.47;5075880;28;993;-49
2022/12/31 04:11:18;;;;;;;;;;;;;;;2.20;88.62;96420.03;5075747;28;1853;-49
2022/12/31 04:13:44;;;;;;;;;;;;;;;2.21;88.39;96424.38;5075635;28;975;-49
2022/12/31 04:16:10;;;;;;;;;;;;;;;2.17;87.90;96422.81;5075562;28;1995;-49
2022/12/31 04:18:36;;;;;;;;;;;;;;;2.29;90.13;96423.97;5075854;28;1012;-49
2022/12/31 04:21:03;;;;;;;;;;;;;;;2.26;88.04;96429.44;5075512;28;1024;-50
2022/12/31 04:23:29;;;;;;;;;;;;;;;2.22;88.70;96425.22;5075579;28;961;-49
2022/12/31 04:25:55;;;;;;;;;;;;;;;2.14;89.06;96429.13;5075503;28;1016;-49
2022/12/31 04:28:21;;;;;;;;;;;;;;;2.05;89.42;96426.94;5075468;28;1055;-49
2022/12/31 04:30:47;;;;;;;;;;;;;;;2.11;89.69;96431.91;5075232;28;1087;-49
2022/12/31 04:33:13;;;;;;;;;;;;;;;2.17;89.28;96421.97;5075614;28;959;-49
2022/12/31 04:35:39;;;;;;;;;;;;;;;2.28;89.17;96425.78;5075418;28;1997;-49
2022/12/31 04:38:05;;;;;;;;;;;;;;;2.36;88.91;96437.72;5075171;28;1197;-49
2022/12/31 04:40:31;;;;;;;;;;;;;;;2.35;88.88;96436.84;5057499;28;1088;-49
2022/12/31 04:42:57;;;;;;;;;;;;;;;2.19;88.25;96441.22;5074946;28;1645;-49
2022/12/31 04:45:23;;;;;;;;;;;;;;;2.08;88.60;96439.97;5075087;28;1218;-50
2022/12/31 04:47:49;;;;;;;;;;;;;;;2.13;88.72;96448.50;5072651;28;1165;-50
2022/12/31 04:50:16;;;;;;;;;;;;;;;2.23;89.16;96437.50;5055117;28;1042;-50
2022/12/31 04:52:42;;;;;;;;;;;;;;;2.21;88.59;96440.22;5055046;28;1036;-50
2022/12/31 04:55:08;;;;;;;;;;;;;;;2.19;88.93;96441.22;5054849;28;1906;-50
2022/12/31 04:57:34;;;;;;;;;;;;;;;2.10;89.08;96448.66;5054813;28;1012;-50
2022/12/31 05:00:00;;;;;;;;;;;;;;;1.94;88.57;96453.88;5054737;28;1016;-50
2022/12/31 05:02:26;;;;;;;;;;;;;;;2.00;89.45;96451.84;5054963;28;952;-50
2022/12/31 05:04:52;;;;;;;;;;;;;;;2.10;88.85;96450.44;5054962;28;1045;-50
2022/12/31 05:07:18;;;;;;;;;;;;;;;2.12;88.79;96464.41;5054573;28;934;-50
2022/12/31 05:09:44;;;;;;;;;;;;;;;2.12;88.63;96459.97;5054647;28;1208;-50
2022/12/31 05:12:10;;;;;;;;;;;;;;;1.93;87.65;96467.13;5054657;28;984;-50
2022/12/31 05:14:36;;;;;;;;;;;;;;;1.77;88.92;96461.75;5054367;28;1910;-50
2022/12/31 05:17:02;;;;;;;;;;;;;;;1.78;89.70;96471.38;5054093;28;1046;-49
2022/12/31 05:19:28;;;;;;;;;;;;;;;1.86;89.28;96463.94;5054531;28;996;-50
2022/12/31 05:24:39;;;;;;;;;;;;;;;2.00;89.19;96465.91;5054313;28;1049;-50
2022/12/31 05:27:05;;;;;;;;;;;;;;;2.08;88.66;96471.63;5053108;28;1092;-50
2022/12/31 05:29:31;;;;;;;;;;;;;;;2.04;88.80;96472.72;5036687;28;1257;-50
2022/12/31 05:31:57;;;;;;;;;;;;;;;2.00;88.74;96470.31;5052977;28;1092;-50
2022/12/31 05:34:23;;;;;;;;;;;;;;;1.87;88.17;96480.63;5054037;28;1993;-50
2022/12/31 05:36:49;;;;;;;;;;;;;;;1.59;88.18;96476.69;5054212;28;958;-50
2022/12/31 05:39:15;;;;;;;;;;;;;;;1.68;89.50;96483.31;5054069;28;1021;-50
2022/12/31 05:41:41;;;;;;;;;;;;;;;1.83;89.08;96485.19;5053919;28;1100;-50
2022/12/31 05:44:08;;;;;;;;;;;;;;;1.81;88.73;96483.56;5053805;28;1248;-50
2022/12/31 05:46:34;;;;;;;;;;;;;;;1.82;88.87;96493.19;5054008;28;1081;-50
2022/12/31 05:49:00;;;;;;;;;;;;;;;1.82;89.16;96490.53;5066112;28;1217;-50
2022/12/31 05:51:26;;;;;;;;;;;;;;;1.85;89.19;96488.59;5073692;28;1004;-49
2022/12/31 05:53:52;;;;;;;;;;;;;;;1.91;88.33;96488.28;5073858;28;1048;-49
2022/12/31 05:56:19;;;;;;;;;;;;;;;1.88;88.36;96483.19;5073561;28;1989;-50
2022/12/31 05:58:45;;;;;;;;;;;;;;;1.91;88.04;96480.38;5073960;28;1171;-50
2022/12/31 06:01:11;;;;;;;;;;;;;;;1.93;87.91;96478.53;5073680;28;1025;-50
2022/12/31 06:03:37;;;;;;;;;;;;;;;1.88;88.02;96490.25;5073752;28;996;-50
2022/12/31 06:06:03;;;;;;;;;;;;;;;1.78;87.96;96489.81;5073625;28;1030;-50
2022/12/31 06:08:29;;;;;;;;;;;;;;;1.73;88.95;96492.69;5073606;28;977;-50
2022/12/31 06:10:55;;;;;;;;;;;;;;;1.85;89.32;96493.03;5073501;28;1008;-50
2022/12/31 06:13:21;;;;;;;;;;;;;;;1.98;89.11;96495.94;5073456;28;1000;-49
2022/12/31 06:15:47;;;;;;;;;;;;;;;2.00;88.86;96492.28;5073667;28;1910;-49
2022/12/31 06:18:13;;;;;;;;;;;;;;;2.01;88.68;96507.19;5073520;28;1087;-50
2022/12/31 06:20:39;;;;;;;;;;;;;;;2.13;87.83;96500.44;5073490;28;977;-50
2022/12/31 06:23:05;;;;;;;;;;;;;;;2.06;88.29;96505.16;5073548;28;1117;-50
2022/12/31 06:25:33;;;;;;;;;;;;;;;1.85;88.96;96514.97;5073355;28;1028;-50
2022/12/31 06:27:59;;;;;;;;;;;;;;;1.88;89.08;96521.91;5073334;28;1275;-50
2022/12/31 06:30:25;;;;;;;;;;;;;;;1.82;90.65;96516.91;5073234;28;1024;-50
2022/12/31 06:32:51;;;;;;;;;;;;;;;1.93;90.94;96520.72;5073254;28;1031;-50
2022/12/31 06:35:17;;;;;;;;;;;;;;;2.04;90.33;96517.56;5073375;28;1993;-50
2022/12/31 06:37:43;;;;;;;;;;;;;;;2.13;89.48;96527.69;5073362;28;1036;-50
2022/12/31 06:40:09;;;;;;;;;;;;;;;2.28;88.95;96522.59;5073236;28;953;-50
2022/12/31 06:42:35;;;;;;;;;;;;;;;2.79;85.92;96531.41;5073120;28;975;-50
2022/12/31 06:45:02;;;;;;;;;;;;;;;2.95;85.30;96538.53;5073045;28;1301;-50
2022/12/31 06:47:28;;;;;;;;;;;;;;;3.96;81.22;96540.94;5073289;28;1000;-50
2022/12/31 06:49:54;;;;;;;;;;;;;;;5.83;73.03;96547.41;5053601;28;1181;-50
2022/12/31 06:52:20;;;;;;;;;;;;;;;7.01;66.74;96549.41;5053127;28;1039;-49
2022/12/31 06:54:46;;;;;;;;;;;;;;;7.71;63.29;96552.59;5053001;28;1996;-50
2022/12/31 06:57:12;;;;;;;;;;;;;;;7.85;61.74;96559.59;5052991;28;984;-50
2022/12/31 06:59:39;;;;;;;;;;;;;;;6.70;66.18;96553.31;5053111;28;1278;-50
2022/12/31 07:02:23;;;;;;;;;;;;;;;6.65;67.05;96558.91;5053167;28;966;-50
2022/12/31 07:04:49;;;;;;;;;;;;;;;7.68;63.17;96571.44;5053022;28;1025;-50
2022/12/31 07:07:15;;;;;;;;;;;;;;;5.65;70.97;96572.47;5052990;28;1013;-50
2022/12/31 07:09:51;;;;;;;;;;;;;;;4.49;76.33;96574.09;5052769;28;1044;-50
2022/12/31 07:12:26;;;;;;;;;;;;;;;3.85;80.19;96575.09;5052845;28;1028;-50
2022/12/31 07:18:58;;;;;;;;;;;;;;;3.16;84.86;96571.75;5031413;28;1200;-46
2022/12/31 07:21:31;;;;;;;;;;;;;;;3.24;85.43;96590.69;5032767;28;1339;-46
2022/12/31 07:23:57;;;;;;;;;;;;;;;3.75;84.25;96587.97;5038511;28;1301;-47
2022/12/31 07:26:42;;;;;;;;;;;;;;;3.86;83.27;96588.25;5052523;28;1024;-47
2022/12/31 07:29:13;;;;;;;;;;;;;;;4.06;83.13;96588.91;5052698;28;1065;-47
2022/12/31 07:31:54;;;;;;;;;;;;;;;4.81;79.95;96584.59;5052513;28;1152;-47
2022/12/31 07:34:20;;;;;;;;;;;;;;;5.92;75.70;96583.16;5012751;28;1130;-46
2022/12/31 07:37:06;;;;;;;;;;;;;;;6.30;74.13;96585.19;5013070;28;1983;-46
2022/12/31 07:39:44;;;;;;;;;;;;;;;5.47;77.44;96575.31;5014111;28;1289;-47
2022/12/31 07:42:14;;;;;;;;;;;;;;;5.02;79.81;96587.75;5016532;28;1017;-47
2022/12/31 07:45:00;;;;;;;;;;;;;;;4.91;81.11;96576.09;5016638;28;1106;-48
2022/12/31 07:47:27;;;;;;;;;;;;;;;5.00;81.71;96583.50;5016245;28;1786;-46
2022/12/31 07:49:53;;;;;;;;;;;;;;;5.40;80.63;96583.75;5033103;28;1628;-47
2022/12/31 07:52:20;;;;;;;;;;;;;;;5.39;81.10;96587.38;5055984;28;1091;-46
2022/12/31 07:54:46;;;;;;;;;;;;;;;5.42;81.03;96589.81;5056015;28;1906;-46
2022/12/31 07:57:14;;;;;;;;;;;;;;;5.65;79.71;96588.38;5056303;28;977;-46
2022/12/31 07:59:53;;;;;;;;;;;;;;;5.81;79.33;96586.47;5055899;28;1051;-47
2022/12/31 08:02:25;;;;;;;;;;;;;;;5.99;78.47;96595.09;5054735;28;1075;-46
2022/12/31 08:04:51;;;;;;;;;;;;;;;5.85;78.89;96595.09;5055938;28;1031;-46
2022/12/31 08:07:24;;;;;;;;;;;;;;;5.85;79.24;96603.06;5054671;28;973;-47
2022/12/31 08:10:13;;;;;;;;;;;;;;;5.63;80.26;96600.88;5056292;28;960;-47
2022/12/31 08:12:40;;;;;;;;;;;;;;;5.76;81.70;96595.69;5032882;28;1194;-48
2022/12/31 08:15:13;;;;;;;;;;;;;;;5.56;82.58;96594.25;5033323;28;2005;-47
2022/12/31 08:17:40;;;;;;;;;;;;;;;5.49;81.75;96599.09;5035050;28;1310;-48
2022/12/31 08:20:07;;;;;;;;;;;;;;;5.61;81.28;96598.31;5035591;28;1205;-47
2022/12/31 08:22:39;;;;;;;;;;;;;;;5.74;80.50;96593.13;5035862;28;1056;-48
2022/12/31 08:25:23;;;;;;;;;;;;;;;5.91;79.45;96594.72;5052698;28;1536;-48
2022/12/31 08:27:55;;;;;;;;;;;;;;;5.85;79.70;96593.28;5042992;28;1243;-47
2022/12/31 08:30:26;;;;;;;;;;;;;;;5.95;79.48;96588.28;5035500;28;1045;-48
2022/12/31 08:33:04;;;;;;;;;;;;;;;5.97;79.57;96594.34;5035996;28;989;-47
2022/12/31 08:35:45;;;;;;;;;;;;;;;5.79;81.37;96591.03;5035343;28;1985;-46
2022/12/31 08:38:14;;;;;;;;;;;;;;;5.61;82.75;96586.88;5035286;28;1315;-47
2022/12/31 08:40:50;;;;;;;;;;;;;;;5.65;82.00;96589.25;5035367;28;951;-47
2022/12/31 08:43:22;;;;;;;;;;;;;;;5.79;82.03;96591.03;5035585;28;1042;-47
2022/12/31 08:45:49;;;;;;;;;;;;;;;6.14;81.50;96587.13;5035325;28;1506;-47
2022/12/31 08:48:25;;;;;;;;;;;;;;;6.17;81.45;96590.44;5035019;28;1206;-47
2022/12/31 08:50:52;;;;;;;;;;;;;;;6.22;81.07;96583.03;5034145;28;1028;-47
2022/12/31 08:53:18;;;;;;;;;;;;;;;6.20;81.42;96579.63;5035044;28;974;-47
2022/12/31 08:55:45;;;;;;;;;;;;;;;6.48;79.94;96585.78;5035232;28;1898;-47
2022/12/31 08:58:21;;;;;;;;;;;;;;;6.75;78.97;96582.22;5034794;28;1212;-47
2022/12/31 09:00:49;;;;;;;;;;;;;;;6.83;78.29;96578.13;5035061;28;1024;-47
2022/12/31 09:03:15;;;;;;;;;;;;;;;6.92;77.51;96575.78;5034967;28;1039;-47
2022/12/31 09:05:59;;;;;;;;;;;;;;;7.00;77.41;96571.66;5034953;28;964;-47
2022/12/31 09:08:29;;;;;;;;;;;;;;;7.32;75.89;96579.25;5034771;28;1101;-47
2022/12/31 09:11:14;;;;;;;;;;;;;;;7.55;74.79;96574.97;5035044;28;1061;-47
2022/12/31 09:13:40;;;;;;;;;;;;;;;7.62;74.14;96581.56;5034810;28;1068;-48
2022/12/31 09:16:06;;;;;;;;;;;;;;;7.72;73.79;96579.13;5034746;28;1906;-48
2022/12/31 09:18:34;;;;;;;;;;;;;;;8.03;72.94;96574.25;5034171;28;1137;-48
2022/12/31 09:21:00;;;;;;;;;;;;;;;8.12;72.36;96567.41;5034783;28;983;-48
2022/12/31 09:23:26;;;;;;;;;;;;;;;8.16;72.08;96566.25;5034443;28;1627;-47
2022/12/31 09:25:52;;;;;;;;;;;;;;;8.16;71.55;96555.56;5034569;28;1094;-47
2022/12/31 09:28:36;;;;;;;;;;;;;;;8.59;69.74;96544.41;5034251;28;1604;-47
2022/12/31 09:31:05;;;;;;;;;;;;;;;9.09;68.20;96541.56;5034515;28;1053;-47
2022/12/31 09:33:37;;;;;;;;;;;;;;;9.41;66.46;96535.53;5034572;28;1247;-47
2022/12/31 09:36:05;;;;;;;;;;;;;;;9.71;66.01;96534.94;5034304;28;1894;-47
2022/12/31 09:38:34;;;;;;;;;;;;;;;9.88;64.82;96536.28;5034100;28;1050;-47
2022/12/31 09:41:28;;;;;;;;;;;;;;;10.27;64.43;96526.84;5034343;28;1061;-47
2022/12/31 09:44:27;;;;;;;;;;;;;;;10.38;64.57;96528.69;5034488;28;1048;-47
2022/12/31 09:46:56;;;;;;;;;;;;;;;10.63;63.89;96518.63;5034081;28;1232;-47
2022/12/31 09:49:37;;;;;;;;;;;;;;;10.88;63.02;96517.41;5034160;28;1003;-47
2022/12/31 09:52:03;;;;;;;;;;;;;;;10.80;62.83;96501.16;5034582;28;957;-47
2022/12/31 09:54:56;;;;;;;;;;;;;;;10.55;62.74;96508.56;5033990;28;1024;-47
2022/12/31 09:57:24;;;;;;;;;;;;;;;10.59;63.91;96509.16;5010505;28;1119;-47
2022/12/31 10:00:14;;;;;;;;;;;;;;;11.26;62.14;96505.25;5034051;28;1010;-47
2022/12/31 10:02:46;;;;;;;;;;;;;;;11.43;60.75;96498.44;5025731;28;1152;-47
2022/12/31 10:05:31;;;;;;;;;;;;;;;11.77;60.62;96492.81;5034088;28;1004;-47
2022/12/31 10:08:08;;;;;;;;;;;;;;;11.93;59.42;96492.31;5033651;28;1112;-47
2022/12/31 10:11:01;;;;;;;;;;;;;;;12.12;59.01;96487.00;5033747;28;999;-47
2022/12/31 10:13:27;;;;;;;;;;;;;;;12.18;58.21;96466.81;5030905;28;1970;-47
2022/12/31 10:15:53;;;;;;;;;;;;;;;12.55;57.85;96467.00;5033846;28;1902;-47
2022/12/31 10:18:22;;;;;;;;;;;;;;;12.60;57.12;96464.75;5033329;28;1258;-48
2022/12/31 10:20:55;;;;;;;;;;;;;;;12.77;57.05;96448.94;5033670;28;1012;-47
2022/12/31 10:23:33;;;;;;;;;;;;;;;13.01;55.71;96452.00;5036250;28;1387;-48
2022/12/31 10:26:08;;;;;;;;;;;;;;;13.15;55.75;96455.22;5053767;28;999;-48
2022/12/31 10:28:52;;;;;;;;;;;;;;;13.44;54.96;96453.31;5038644;28;1039;-48
2022/12/31 10:31:18;;;;;;;;;;;;;;;13.42;54.24;96447.25;5033439;28;1012;-48
2022/12/31 10:33:44;;;;;;;;;;;;;;;13.38;54.83;96448.53;5033380;28;1040;-48
2022/12/31 10:36:16;;;;;;;;;;;;;;;13.54;53.77;96447.06;5033591;28;1914;-48
2022/12/31 10:38:54;;;;;;;;;;;;;;;13.18;53.82;96446.88;5033389;28;1541;-48
2022/12/31 10:41:29;;;;;;;;;;;;;;;13.14;53.61;96445.47;5033426;28;948;-47
2022/12/31 10:43:55;;;;;;;;;;;;;;;13.41;53.99;96450.94;5033396;28;1048;-48
2022/12/31 10:46:40;;;;;;;;;;;;;;;13.41;53.70;96437.50;5033208;28;1012;-47
2022/12/31 10:49:25;;;;;;;;;;;;;;;13.17;54.31;96431.75;5033290;28;1186;-48
2022/12/31 10:52:00;;;;;;;;;;;;;;;13.21;53.99;96428.63;5033273;28;1036;-48
2022/12/31 10:54:41;;;;;;;;;;;;;;;13.35;53.48;96429.16;5033204;28;1092;-48
2022/12/31 10:57:28;;;;;;;;;;;;;;;13.35;54.05;96424.63;5033216;28;1502;-48
2022/12/31 11:00:06;;;;;;;;;;;;;;;13.27;53.57;96425.34;5033441;28;1061;-47
2022/12/31 11:02:38;;;;;;;;;;;;;;;13.43;53.74;96435.50;5033163;28;1020;-47
2022/12/31 11:05:23;;;;;;;;;;;;;;;13.60;53.22;96439.25;5033093;28;1035;-48
2022/12/31 11:08:09;;;;;;;;;;;;;;;13.51;52.72;96433.91;5033058;28;1228;-47
2022/12/31 11:10:41;;;;;;;;;;;;;;;13.68;52.34;96427.78;5033138;28;2017;-47
2022/12/31 11:13:07;;;;;;;;;;;;;;;13.57;52.53;96427.97;5033194;28;1053;-47
2022/12/31 11:15:56;;;;;;;;;;;;;;;13.83;52.12;96428.97;5036041;28;1992;-47
2022/12/31 11:18:40;;;;;;;;;;;;;;;13.45;52.28;96414.72;5035762;28;2154;-48
2022/12/31 11:21:26;;;;;;;;;;;;;;;13.48;53.04;96410.88;5036867;28;997;-48
2022/12/31 11:24:05;;;;;;;;;;;;;;;13.47;52.82;96407.34;5036732;28;1376;-48
2022/12/31 11:26:33;;;;;;;;;;;;;;;13.60;54.08;96398.97;5036955;28;970;-48
2022/12/31 11:29:00;;;;;;;;;;;;;;;13.59;53.82;96404.47;5036483;28;1091;-47
2022/12/31 11:31:26;;;;;;;;;;;;;;;13.41;53.25;96405.25;5036787;28;968;-47
2022/12/31 11:34:04;;;;;;;;;;;;;;;13.07;52.51;96399.53;5036710;28;1064;-47
2022/12/31 11:36:43;;;;;;;;;;;;;;;13.24;53.29;96393.44;5036394;28;1914;-48
2022/12/31 11:39:09;;;;;;;;;;;;;;;13.38;53.63;96392.13;5036524;28;1302;-48
2022/12/31 11:41:45;;;;;;;;;;;;;;;13.74;54.23;96380.63;5036430;28;1040;-48
2022/12/31 11:44:25;;;;;;;;;;;;;;;13.89;52.41;96380.94;5036489;28;967;-47
2022/12/31 11:46:51;;;;;;;;;;;;;;;13.94;52.26;96381.34;5036413;28;1029;-47
2022/12/31 11:49:20;;;;;;;;;;;;;;;13.85;52.60;96369.66;5036198;28;1986;-47
2022/12/31 11:52:06;;;;;;;;;;;;;;;13.65;53.86;96375.13;5036299;28;1262;-47
2022/12/31 11:54:32;;;;;;;;;;;;;;;13.88;52.58;96373.88;5025942;28;1128;-47
2022/12/31 11:57:12;;;;;;;;;;;;;;;14.03;52.91;96378.56;5034974;28;1969;-47
2022/12/31 11:59:39;;;;;;;;;;;;;;;14.07;53.00;96379.13;5036135;28;1003;-47
2022/12/31 12:02:17;;;;;;;;;;;;;;;14.10;52.02;96375.28;5034879;28;1028;-47
2022/12/31 12:04:47;;;;;;;;;;;;;;;13.98;53.41;96369.28;5036079;28;1068;-47
2022/12/31 12:07:14;;;;;;;;;;;;;;;14.00;52.19;96364.59;5035758;28;1347;-47
2022/12/31 12:09:42;;;;;;;;;;;;;;;13.90;52.86;96366.50;5035905;28;1044;-47
2022/12/31 12:12:08;;;;;;;;;;;;;;;13.89;53.55;96362.13;5035764;28;1123;-46
2022/12/31 12:14:36;;;;;;;;;;;;;;;13.88;53.74;96363.13;5035741;28;1115;-47
2022/12/31 12:17:05;;;;;;;;;;;;;;;13.91;53.79;96368.22;5035723;28;1914;-47
2022/12/31 12:19:32;;;;;;;;;;;;;;;13.79;53.40;96363.06;5035230;28;1263;-46
2022/12/31 12:22:07;;;;;;;;;;;;;;;13.62;53.95;96361.16;5035732;28;1069;-46
2022/12/31 12:24:33;;;;;;;;;;;;;;;13.55;54.60;96369.00;5048259;28;1336;-47
2022/12/31 12:27:00;;;;;;;;;;;;;;;13.52;55.01;96363.06;5055443;28;1106;-47
2022/12/31 12:29:27;;;;;;;;;;;;;;;13.40;54.70;96365.09;5037269;28;1440;-47
2022/12/31 12:31:57;;;;;;;;;;;;;;;13.47;55.08;96379.66;5035532;28;1087;-47
2022/12/31 12:34:24;;;;;;;;;;;;;;;13.57;55.38;96375.06;5035549;28;968;-47
2022/12/31 12:36:50;;;;;;;;;;;;;;;13.41;54.76;96369.47;5035447;28;1987;-47
2022/12/31 12:39:25;;;;;;;;;;;;;;;13.39;55.44;96380.41;5035132;28;1034;-47
2022/12/31 12:42:00;;;;;;;;;;;;;;;13.43;55.20;96384.47;5035564;28;962;-47
2022/12/31 12:44:26;;;;;;;;;;;;;;;13.36;56.30;96378.00;5035413;28;1024;-47
2022/12/31 12:46:52;;;;;;;;;;;;;;;13.35;55.41;96384.34;5035414;28;1019;-47
2022/12/31 12:49:21;;;;;;;;;;;;;;;13.33;56.60;96383.66;5034963;28;1186;-47
2022/12/31 12:51:59;;;;;;;;;;;;;;;13.27;56.67;96385.06;5035182;28;1103;-47
2022/12/31 12:54:44;;;;;;;;;;;;;;;13.22;55.98;96387.34;5035146;28;1099;-47
2022/12/31 12:57:13;;;;;;;;;;;;;;;13.17;56.71;96380.72;5035071;28;1086;-47
2022/12/31 12:59:42;;;;;;;;;;;;;;;13.04;58.31;96381.06;5034937;28;1428;-47
2022/12/31 13:02:08;;;;;;;;;;;;;;;12.92;58.05;96384.88;5034993;28;1041;-47
2022/12/31 13:04:52;;;;;;;;;;;;;;;12.84;58.49;96382.94;5035106;28;1045;-47
2022/12/31 13:07:44;;;;;;;;;;;;;;;12.81;57.01;96393.97;5034921;28;1192;-48
2022/12/31 13:10:16;;;;;;;;;;;;;;;12.72;58.21;96386.78;5034870;28;1024;-47
2022/12/31 13:12:54;;;;;;;;;;;;;;;12.67;58.20;96400.63;5034796;28;1201;-47
2022/12/31 13:15:26;;;;;;;;;;;;;;;12.69;56.53;96393.25;5034746;28;1979;-47
2022/12/31 13:17:52;;;;;;;;;;;;;;;12.73;57.66;96391.16;5034498;28;1061;-47
2022/12/31 13:20:18;;;;;;;;;;;;;;;12.74;57.28;96391.00;5034690;28;1037;-48
2022/12/31 13:23:11;;;;;;;;;;;;;;;12.75;56.87;96387.34;5034602;28;927;-48
2022/12/31 13:25:44;;;;;;;;;;;;;;;12.68;57.01;96388.91;5014996;28;973;-47
2022/12/31 13:28:12;;;;;;;;;;;;;;;12.72;56.18;96389.47;5020150;28;1222;-48
2022/12/31 13:30:41;;;;;;;;;;;;;;;12.76;56.23;96393.56;5034508;28;1053;-48
2022/12/31 13:33:13;;;;;;;;;;;;;;;12.81;55.99;96391.28;5034458;28;1193;-47
2022/12/31 13:35:51;;;;;;;;;;;;;;;12.83;56.75;96386.63;5034158;28;1987;-47
2022/12/31 13:38:20;;;;;;;;;;;;;;;12.77;56.97;96388.06;5033707;28;1110;-47
2022/12/31 13:41:05;;;;;;;;;;;;;;;12.72;57.03;96389.47;5034442;28;958;-47
2022/12/31 13:43:50;;;;;;;;;;;;;;;12.67;57.53;96387.19;5034173;28;1020;-48